sensor_id;sensor_type;location;lat;lon;timestamp;P1;durP1;ratioP1;P2;durP2;ratioP2
39266;SDS011;24967;51.154;13.812;2023-07-09T00:01:08;8.38;;;7.10;;
39266;SDS011;24967;51.154;13.812;2023-07-09T00:03:39;8.25;;;6.35;;
39266;SDS011;24967;51.154;13.812;2023-07-09T00:06:07;6.30;;;5.80;;
39266;SDS011;24967;51.154;13.812;2023-07-09T00:08:35;7.30;;;6.68;;
39266;SDS011;24967;51.154;13.812;2023-07-09T00:11:05;6.63;;;6.03;;
39266;SDS011;24967;51.154;13.812;2023-07-09T00:13:31;10.48;;;6.47;;
39266;SDS011;24967;51.154;13.812;2023-07-09T00:15:59;7.50;;;6.55;;
39266;SDS011;24967;51.154;13.812;2023-07-09T00:18:30;7.60;;;6.75;;
39266;SDS011;24967;51.154;13.812;2023-07-09T00:20:56;6.88;;;6.28;;
39266;SDS011;24967;51.154;13.812;2023-07-09T00:23:24;7.43;;;6.75;;
39266;SDS011;24967;51.154;13.812;2023-07-09T00:25:53;7.35;;;6.65;;
39266;SDS011;24967;51.154;13.812;2023-07-09T00:28:20;7.70;;;6.90;;
39266;SDS011;24967;51.154;13.812;2023-07-09T00:30:47;6.93;;;6.32;;
39266;SDS011;24967;51.154;13.812;2023-07-09T00:33:14;7.22;;;6.15;;
39266;SDS011;24967;51.154;13.812;2023-07-09T00:35:43;6.95;;;6.25;;
39266;SDS011;24967;51.154;13.812;2023-07-09T00:38:14;7.38;;;6.43;;
39266;SDS011;24967;51.154;13.812;2023-07-09T00:40:45;7.57;;;6.30;;
39266;SDS011;24967;51.154;13.812;2023-07-09T00:43:15;7.07;;;6.47;;
39266;SDS011;24967;51.154;13.812;2023-07-09T00:45:42;7.07;;;6.38;;
39266;SDS011;24967;51.154;13.812;2023-07-09T00:48:09;6.65;;;5.90;;
39266;SDS011;24967;51.154;13.812;2023-07-09T00:50:41;7.63;;;6.30;;
39266;SDS011;24967;51.154;13.812;2023-07-09T00:53:13;6.60;;;6.00;;
39266;SDS011;24967;51.154;13.812;2023-07-09T00:55:44;7.10;;;6.03;;
39266;SDS011;24967;51.154;13.812;2023-07-09T00:58:20;6.97;;;6.28;;
39266;SDS011;24967;51.154;13.812;2023-07-09T01:00:53;6.80;;;6.10;;
39266;SDS011;24967;51.154;13.812;2023-07-09T01:03:23;6.40;;;5.80;;
39266;SDS011;24967;51.154;13.812;2023-07-09T01:05:54;6.72;;;5.93;;
39266;SDS011;24967;51.154;13.812;2023-07-09T01:08:23;6.00;;;5.40;;
39266;SDS011;24967;51.154;13.812;2023-07-09T01:10:50;6.63;;;5.60;;
39266;SDS011;24967;51.154;13.812;2023-07-09T01:13:16;6.85;;;6.13;;
39266;SDS011;24967;51.154;13.812;2023-07-09T01:15:45;11.35;;;5.40;;
39266;SDS011;24967;51.154;13.812;2023-07-09T01:18:13;5.63;;;5.22;;
39266;SDS011;24967;51.154;13.812;2023-07-09T01:20:40;6.28;;;5.68;;
39266;SDS011;24967;51.154;13.812;2023-07-09T01:23:08;6.30;;;5.45;;
39266;SDS011;24967;51.154;13.812;2023-07-09T01:25:43;5.40;;;4.93;;
39266;SDS011;24967;51.154;13.812;2023-07-09T01:28:19;6.15;;;5.63;;
39266;SDS011;24967;51.154;13.812;2023-07-09T01:30:46;6.93;;;5.53;;
39266;SDS011;24967;51.154;13.812;2023-07-09T01:33:18;6.78;;;5.90;;
39266;SDS011;24967;51.154;13.812;2023-07-09T01:35:45;7.45;;;5.90;;
39266;SDS011;24967;51.154;13.812;2023-07-09T01:38:14;7.50;;;5.93;;
39266;SDS011;24967;51.154;13.812;2023-07-09T01:40:41;7.10;;;5.82;;
39266;SDS011;24967;51.154;13.812;2023-07-09T01:43:07;6.80;;;5.35;;
39266;SDS011;24967;51.154;13.812;2023-07-09T01:45:34;5.88;;;5.38;;
39266;SDS011;24967;51.154;13.812;2023-07-09T01:48:02;7.82;;;5.63;;
39266;SDS011;24967;51.154;13.812;2023-07-09T01:50:29;6.80;;;5.85;;
39266;SDS011;24967;51.154;13.812;2023-07-09T01:52:56;6.95;;;5.75;;
39266;SDS011;24967;51.154;13.812;2023-07-09T01:55:24;6.68;;;5.57;;
39266;SDS011;24967;51.154;13.812;2023-07-09T01:57:51;6.13;;;5.60;;
39266;SDS011;24967;51.154;13.812;2023-07-09T02:00:17;6.25;;;5.68;;
39266;SDS011;24967;51.154;13.812;2023-07-09T02:02:44;5.78;;;5.18;;
39266;SDS011;24967;51.154;13.812;2023-07-09T02:05:12;6.80;;;5.43;;
39266;SDS011;24967;51.154;13.812;2023-07-09T02:07:40;8.15;;;5.97;;
39266;SDS011;24967;51.154;13.812;2023-07-09T02:10:07;5.88;;;5.38;;
39266;SDS011;24967;51.154;13.812;2023-07-09T02:12:35;5.63;;;5.13;;
39266;SDS011;24967;51.154;13.812;2023-07-09T02:15:02;6.43;;;5.93;;
39266;SDS011;24967;51.154;13.812;2023-07-09T02:17:29;6.50;;;5.88;;
39266;SDS011;24967;51.154;13.812;2023-07-09T02:19:56;9.05;;;6.35;;
39266;SDS011;24967;51.154;13.812;2023-07-09T02:22:22;7.68;;;5.90;;
39266;SDS011;24967;51.154;13.812;2023-07-09T02:24:49;8.57;;;6.00;;
39266;SDS011;24967;51.154;13.812;2023-07-09T02:27:18;8.65;;;5.93;;
39266;SDS011;24967;51.154;13.812;2023-07-09T02:29:47;6.70;;;6.10;;
39266;SDS011;24967;51.154;13.812;2023-07-09T02:32:16;5.75;;;5.25;;
39266;SDS011;24967;51.154;13.812;2023-07-09T02:34:44;6.50;;;6.00;;
39266;SDS011;24967;51.154;13.812;2023-07-09T02:37:14;6.97;;;5.85;;
39266;SDS011;24967;51.154;13.812;2023-07-09T02:39:41;6.38;;;5.70;;
39266;SDS011;24967;51.154;13.812;2023-07-09T02:42:08;6.63;;;5.85;;
39266;SDS011;24967;51.154;13.812;2023-07-09T02:44:35;8.13;;;6.03;;
39266;SDS011;24967;51.154;13.812;2023-07-09T02:47:04;6.53;;;5.93;;
39266;SDS011;24967;51.154;13.812;2023-07-09T02:52:34;7.00;;;6.30;;
39266;SDS011;24967;51.154;13.812;2023-07-09T02:55:01;6.43;;;5.93;;
39266;SDS011;24967;51.154;13.812;2023-07-09T02:57:27;6.78;;;5.95;;
39266;SDS011;24967;51.154;13.812;2023-07-09T02:59:54;6.60;;;5.93;;
39266;SDS011;24967;51.154;13.812;2023-07-09T03:02:22;6.35;;;5.68;;
39266;SDS011;24967;51.154;13.812;2023-07-09T03:04:48;6.15;;;5.40;;
39266;SDS011;24967;51.154;13.812;2023-07-09T03:07:14;5.97;;;5.38;;
39266;SDS011;24967;51.154;13.812;2023-07-09T03:09:41;7.07;;;5.63;;
39266;SDS011;24967;51.154;13.812;2023-07-09T03:12:08;6.35;;;5.75;;
39266;SDS011;24967;51.154;13.812;2023-07-09T03:14:35;6.47;;;5.82;;
39266;SDS011;24967;51.154;13.812;2023-07-09T03:17:02;6.63;;;6.03;;
39266;SDS011;24967;51.154;13.812;2023-07-09T03:19:29;6.75;;;6.15;;
39266;SDS011;24967;51.154;13.812;2023-07-09T03:21:56;6.43;;;5.85;;
39266;SDS011;24967;51.154;13.812;2023-07-09T03:24:22;7.10;;;6.38;;
39266;SDS011;24967;51.154;13.812;2023-07-09T03:26:49;5.90;;;5.40;;
39266;SDS011;24967;51.154;13.812;2023-07-09T03:29:15;7.57;;;5.88;;
39266;SDS011;24967;51.154;13.812;2023-07-09T03:31:42;7.38;;;6.18;;
39266;SDS011;24967;51.154;13.812;2023-07-09T03:34:08;6.63;;;6.03;;
39266;SDS011;24967;51.154;13.812;2023-07-09T03:36:36;6.25;;;5.65;;
39266;SDS011;24967;51.154;13.812;2023-07-09T03:39:03;6.38;;;5.78;;
39266;SDS011;24967;51.154;13.812;2023-07-09T03:41:30;6.45;;;5.85;;
39266;SDS011;24967;51.154;13.812;2023-07-09T03:43:57;6.78;;;6.05;;
39266;SDS011;24967;51.154;13.812;2023-07-09T03:46:23;6.72;;;5.82;;
39266;SDS011;24967;51.154;13.812;2023-07-09T03:48:50;6.70;;;6.10;;
39266;SDS011;24967;51.154;13.812;2023-07-09T03:51:16;7.80;;;5.60;;
39266;SDS011;24967;51.154;13.812;2023-07-09T03:53:44;7.05;;;6.45;;
39266;SDS011;24967;51.154;13.812;2023-07-09T03:56:19;7.03;;;5.80;;
39266;SDS011;24967;51.154;13.812;2023-07-09T03:58:45;6.13;;;5.53;;
39266;SDS011;24967;51.154;13.812;2023-07-09T04:01:12;7.95;;;6.32;;
39266;SDS011;24967;51.154;13.812;2023-07-09T04:03:41;6.10;;;5.65;;
39266;SDS011;24967;51.154;13.812;2023-07-09T04:06:07;6.47;;;5.88;;
39266;SDS011;24967;51.154;13.812;2023-07-09T04:08:34;6.07;;;5.47;;
39266;SDS011;24967;51.154;13.812;2023-07-09T04:11:02;6.30;;;5.80;;
39266;SDS011;24967;51.154;13.812;2023-07-09T04:13:29;6.28;;;5.78;;
39266;SDS011;24967;51.154;13.812;2023-07-09T04:15:56;6.82;;;5.57;;
39266;SDS011;24967;51.154;13.812;2023-07-09T04:18:23;6.35;;;5.80;;
39266;SDS011;24967;51.154;13.812;2023-07-09T04:20:50;7.10;;;6.10;;
39266;SDS011;24967;51.154;13.812;2023-07-09T04:26:14;7.80;;;6.32;;
39266;SDS011;24967;51.154;13.812;2023-07-09T04:28:43;7.35;;;6.00;;
39266;SDS011;24967;51.154;13.812;2023-07-09T04:31:09;7.15;;;6.55;;
39266;SDS011;24967;51.154;13.812;2023-07-09T04:33:36;7.38;;;5.57;;
39266;SDS011;24967;51.154;13.812;2023-07-09T04:36:02;6.25;;;5.65;;
39266;SDS011;24967;51.154;13.812;2023-07-09T04:38:31;6.55;;;5.88;;
39266;SDS011;24967;51.154;13.812;2023-07-09T04:40:58;6.97;;;6.38;;
39266;SDS011;24967;51.154;13.812;2023-07-09T04:43:25;6.13;;;5.57;;
39266;SDS011;24967;51.154;13.812;2023-07-09T04:45:52;6.47;;;5.88;;
39266;SDS011;24967;51.154;13.812;2023-07-09T04:48:18;6.35;;;5.68;;
39266;SDS011;24967;51.154;13.812;2023-07-09T04:50:44;6.45;;;5.95;;
39266;SDS011;24967;51.154;13.812;2023-07-09T04:53:15;8.45;;;7.55;;
39266;SDS011;24967;51.154;13.812;2023-07-09T04:55:41;7.15;;;6.40;;
39266;SDS011;24967;51.154;13.812;2023-07-09T04:58:08;8.20;;;6.30;;
39266;SDS011;24967;51.154;13.812;2023-07-09T05:00:35;9.27;;;6.43;;
39266;SDS011;24967;51.154;13.812;2023-07-09T05:03:02;6.53;;;5.97;;
39266;SDS011;24967;51.154;13.812;2023-07-09T05:05:31;7.57;;;6.97;;
39266;SDS011;24967;51.154;13.812;2023-07-09T05:07:58;7.28;;;6.57;;
39266;SDS011;24967;51.154;13.812;2023-07-09T05:10:25;7.07;;;6.38;;
39266;SDS011;24967;51.154;13.812;2023-07-09T05:12:54;7.60;;;6.80;;
39266;SDS011;24967;51.154;13.812;2023-07-09T05:15:21;6.15;;;5.65;;
39266;SDS011;24967;51.154;13.812;2023-07-09T05:17:50;7.28;;;6.00;;
39266;SDS011;24967;51.154;13.812;2023-07-09T05:20:17;6.68;;;6.10;;
39266;SDS011;24967;51.154;13.812;2023-07-09T05:22:43;6.32;;;5.65;;
39266;SDS011;24967;51.154;13.812;2023-07-09T05:25:10;5.78;;;5.28;;
39266;SDS011;24967;51.154;13.812;2023-07-09T05:27:37;6.10;;;5.60;;
39266;SDS011;24967;51.154;13.812;2023-07-09T05:30:04;6.70;;;5.85;;
39266;SDS011;24967;51.154;13.812;2023-07-09T05:32:32;6.47;;;5.90;;
39266;SDS011;24967;51.154;13.812;2023-07-09T05:35:00;5.90;;;5.40;;
39266;SDS011;24967;51.154;13.812;2023-07-09T05:37:27;6.28;;;5.05;;
39266;SDS011;24967;51.154;13.812;2023-07-09T05:39:53;5.45;;;5.05;;
39266;SDS011;24967;51.154;13.812;2023-07-09T05:42:20;5.70;;;5.25;;
39266;SDS011;24967;51.154;13.812;2023-07-09T05:44:46;5.38;;;4.88;;
39266;SDS011;24967;51.154;13.812;2023-07-09T05:47:13;5.75;;;5.15;;
39266;SDS011;24967;51.154;13.812;2023-07-09T05:49:40;4.60;;;4.30;;
39266;SDS011;24967;51.154;13.812;2023-07-09T05:52:08;5.40;;;4.70;;
39266;SDS011;24967;51.154;13.812;2023-07-09T05:54:34;5.25;;;4.85;;
39266;SDS011;24967;51.154;13.812;2023-07-09T05:57:00;5.18;;;4.78;;
39266;SDS011;24967;51.154;13.812;2023-07-09T05:59:27;5.43;;;4.93;;
39266;SDS011;24967;51.154;13.812;2023-07-09T06:01:54;5.13;;;4.72;;
39266;SDS011;24967;51.154;13.812;2023-07-09T06:04:20;5.22;;;4.70;;
39266;SDS011;24967;51.154;13.812;2023-07-09T06:06:46;4.72;;;4.32;;
39266;SDS011;24967;51.154;13.812;2023-07-09T06:09:14;4.90;;;4.50;;
39266;SDS011;24967;51.154;13.812;2023-07-09T06:11:41;4.68;;;4.28;;
39266;SDS011;24967;51.154;13.812;2023-07-09T06:14:08;4.53;;;4.13;;
39266;SDS011;24967;51.154;13.812;2023-07-09T06:16:35;4.10;;;3.70;;
39266;SDS011;24967;51.154;13.812;2023-07-09T06:19:02;7.28;;;4.53;;
39266;SDS011;24967;51.154;13.812;2023-07-09T06:21:29;4.32;;;4.03;;
39266;SDS011;24967;51.154;13.812;2023-07-09T06:23:55;4.60;;;4.30;;
39266;SDS011;24967;51.154;13.812;2023-07-09T06:26:23;4.95;;;3.92;;
39266;SDS011;24967;51.154;13.812;2023-07-09T06:28:50;4.38;;;4.07;;
39266;SDS011;24967;51.154;13.812;2023-07-09T06:31:16;4.60;;;4.25;;
39266;SDS011;24967;51.154;13.812;2023-07-09T06:33:44;4.30;;;3.92;;
39266;SDS011;24967;51.154;13.812;2023-07-09T06:36:10;4.70;;;4.22;;
39266;SDS011;24967;51.154;13.812;2023-07-09T06:38:36;4.07;;;3.72;;
39266;SDS011;24967;51.154;13.812;2023-07-09T06:41:03;4.35;;;3.95;;
39266;SDS011;24967;51.154;13.812;2023-07-09T06:43:31;4.40;;;4.00;;
39266;SDS011;24967;51.154;13.812;2023-07-09T06:45:58;4.43;;;4.13;;
39266;SDS011;24967;51.154;13.812;2023-07-09T06:48:25;4.80;;;4.40;;
39266;SDS011;24967;51.154;13.812;2023-07-09T06:50:53;4.10;;;3.80;;
39266;SDS011;24967;51.154;13.812;2023-07-09T06:53:21;4.00;;;3.70;;
39266;SDS011;24967;51.154;13.812;2023-07-09T06:55:48;4.72;;;4.30;;
39266;SDS011;24967;51.154;13.812;2023-07-09T06:58:15;4.00;;;3.70;;
39266;SDS011;24967;51.154;13.812;2023-07-09T07:00:44;5.25;;;3.80;;
39266;SDS011;24967;51.154;13.812;2023-07-09T07:03:11;4.10;;;3.80;;
39266;SDS011;24967;51.154;13.812;2023-07-09T07:05:42;3.85;;;3.63;;
39266;SDS011;24967;51.154;13.812;2023-07-09T07:08:09;4.45;;;3.53;;
39266;SDS011;24967;51.154;13.812;2023-07-09T07:10:36;3.80;;;3.60;;
39266;SDS011;24967;51.154;13.812;2023-07-09T07:13:02;4.03;;;3.63;;
39266;SDS011;24967;51.154;13.812;2023-07-09T07:15:29;4.50;;;4.20;;
39266;SDS011;24967;51.154;13.812;2023-07-09T07:17:56;5.78;;;4.43;;
39266;SDS011;24967;51.154;13.812;2023-07-09T07:20:23;4.65;;;4.35;;
39266;SDS011;24967;51.154;13.812;2023-07-09T07:22:50;4.68;;;4.30;;
39266;SDS011;24967;51.154;13.812;2023-07-09T07:25:16;8.07;;;4.47;;
39266;SDS011;24967;51.154;13.812;2023-07-09T07:27:43;4.20;;;3.85;;
39266;SDS011;24967;51.154;13.812;2023-07-09T07:30:09;4.15;;;3.95;;
39266;SDS011;24967;51.154;13.812;2023-07-09T07:32:37;4.60;;;4.20;;
39266;SDS011;24967;51.154;13.812;2023-07-09T07:35:06;4.38;;;4.07;;
39266;SDS011;24967;51.154;13.812;2023-07-09T07:37:33;4.25;;;3.95;;
39266;SDS011;24967;51.154;13.812;2023-07-09T07:39:59;3.70;;;3.35;;
39266;SDS011;24967;51.154;13.812;2023-07-09T07:42:26;4.30;;;3.85;;
39266;SDS011;24967;51.154;13.812;2023-07-09T07:44:52;3.92;;;3.63;;
39266;SDS011;24967;51.154;13.812;2023-07-09T07:47:19;4.63;;;3.90;;
39266;SDS011;24967;51.154;13.812;2023-07-09T07:49:45;4.28;;;3.92;;
39266;SDS011;24967;51.154;13.812;2023-07-09T07:52:13;4.13;;;3.83;;
39266;SDS011;24967;51.154;13.812;2023-07-09T07:54:40;4.53;;;4.22;;
39266;SDS011;24967;51.154;13.812;2023-07-09T07:57:06;4.32;;;4.03;;
39266;SDS011;24967;51.154;13.812;2023-07-09T07:59:34;5.97;;;3.90;;
39266;SDS011;24967;51.154;13.812;2023-07-09T08:02:00;5.05;;;3.88;;
39266;SDS011;24967;51.154;13.812;2023-07-09T08:04:27;3.80;;;3.55;;
39266;SDS011;24967;51.154;13.812;2023-07-09T08:06:54;4.85;;;4.32;;
39266;SDS011;24967;51.154;13.812;2023-07-09T08:09:22;4.03;;;3.83;;
39266;SDS011;24967;51.154;13.812;2023-07-09T08:11:48;4.47;;;4.25;;
39266;SDS011;24967;51.154;13.812;2023-07-09T08:14:15;4.22;;;3.90;;
39266;SDS011;24967;51.154;13.812;2023-07-09T08:16:41;4.75;;;4.35;;
39266;SDS011;24967;51.154;13.812;2023-07-09T08:19:08;4.43;;;4.03;;
39266;SDS011;24967;51.154;13.812;2023-07-09T08:21:34;4.50;;;4.10;;
39266;SDS011;24967;51.154;13.812;2023-07-09T08:24:01;4.68;;;4.32;;
39266;SDS011;24967;51.154;13.812;2023-07-09T08:26:28;4.53;;;3.80;;
39266;SDS011;24967;51.154;13.812;2023-07-09T08:28:56;4.32;;;4.03;;
39266;SDS011;24967;51.154;13.812;2023-07-09T08:31:23;4.28;;;3.83;;
39266;SDS011;24967;51.154;13.812;2023-07-09T08:33:49;4.35;;;3.70;;
39266;SDS011;24967;51.154;13.812;2023-07-09T08:36:15;4.20;;;3.80;;
39266;SDS011;24967;51.154;13.812;2023-07-09T08:38:42;4.53;;;4.00;;
39266;SDS011;24967;51.154;13.812;2023-07-09T08:41:12;4.93;;;4.10;;
39266;SDS011;24967;51.154;13.812;2023-07-09T08:43:54;5.50;;;3.70;;
39266;SDS011;24967;51.154;13.812;2023-07-09T08:46:30;4.38;;;4.18;;
39266;SDS011;24967;51.154;13.812;2023-07-09T08:49:08;4.32;;;3.97;;
39266;SDS011;24967;51.154;13.812;2023-07-09T08:51:41;4.03;;;3.72;;
39266;SDS011;24967;51.154;13.812;2023-07-09T08:54:09;4.03;;;3.75;;
39266;SDS011;24967;51.154;13.812;2023-07-09T08:56:48;4.07;;;3.43;;
39266;SDS011;24967;51.154;13.812;2023-07-09T08:59:17;3.50;;;3.20;;
39266;SDS011;24967;51.154;13.812;2023-07-09T09:01:46;3.90;;;3.00;;
39266;SDS011;24967;51.154;13.812;2023-07-09T09:04:19;3.13;;;2.92;;
39266;SDS011;24967;51.154;13.812;2023-07-09T09:06:53;3.83;;;3.53;;
39266;SDS011;24967;51.154;13.812;2023-07-09T09:09:31;3.33;;;2.80;;
39266;SDS011;24967;51.154;13.812;2023-07-09T09:12:04;2.90;;;2.75;;
39266;SDS011;24967;51.154;13.812;2023-07-09T09:14:41;3.80;;;3.22;;
39266;SDS011;24967;51.154;13.812;2023-07-09T09:17:11;2.80;;;2.70;;
39266;SDS011;24967;51.154;13.812;2023-07-09T09:22:21;3.53;;;3.22;;
39266;SDS011;24967;51.154;13.812;2023-07-09T09:24:55;3.50;;;3.30;;
39266;SDS011;24967;51.154;13.812;2023-07-09T09:27:28;3.15;;;2.95;;
39266;SDS011;24967;51.154;13.812;2023-07-09T09:29:56;3.20;;;3.00;;
39266;SDS011;24967;51.154;13.812;2023-07-09T09:32:22;3.15;;;2.75;;
39266;SDS011;24967;51.154;13.812;2023-07-09T09:34:52;3.95;;;3.10;;
39266;SDS011;24967;51.154;13.812;2023-07-09T09:37:24;3.33;;;3.03;;
39266;SDS011;24967;51.154;13.812;2023-07-09T09:39:53;3.03;;;2.83;;
39266;SDS011;24967;51.154;13.812;2023-07-09T09:42:20;2.88;;;2.67;;
39266;SDS011;24967;51.154;13.812;2023-07-09T09:44:50;3.00;;;2.90;;
39266;SDS011;24967;51.154;13.812;2023-07-09T09:47:21;3.30;;;3.10;;
39266;SDS011;24967;51.154;13.812;2023-07-09T09:49:52;3.13;;;2.92;;
39266;SDS011;24967;51.154;13.812;2023-07-09T09:52:19;3.22;;;2.90;;
39266;SDS011;24967;51.154;13.812;2023-07-09T09:54:48;3.25;;;2.67;;
39266;SDS011;24967;51.154;13.812;2023-07-09T09:57:19;10.18;;;3.25;;
39266;SDS011;24967;51.154;13.812;2023-07-09T09:59:48;7.28;;;3.50;;
39266;SDS011;24967;51.154;13.812;2023-07-09T10:02:16;3.67;;;3.00;;
39266;SDS011;24967;51.154;13.812;2023-07-09T10:04:45;3.20;;;2.88;;
39266;SDS011;24967;51.154;13.812;2023-07-09T10:07:14;3.00;;;2.80;;
39266;SDS011;24967;51.154;13.812;2023-07-09T10:09:48;4.85;;;2.58;;
39266;SDS011;24967;51.154;13.812;2023-07-09T10:12:29;75.10;;;5.93;;
39266;SDS011;24967;51.154;13.812;2023-07-09T10:15:06;3.10;;;2.80;;
39266;SDS011;24967;51.154;13.812;2023-07-09T10:17:45;3.53;;;3.22;;
39266;SDS011;24967;51.154;13.812;2023-07-09T10:20:23;3.45;;;3.17;;
39266;SDS011;24967;51.154;13.812;2023-07-09T10:22:53;4.10;;;3.30;;
39266;SDS011;24967;51.154;13.812;2023-07-09T10:25:29;9.68;;;3.60;;
39266;SDS011;24967;51.154;13.812;2023-07-09T10:28:06;4.78;;;2.92;;
39266;SDS011;24967;51.154;13.812;2023-07-09T10:30:48;3.15;;;2.75;;
39266;SDS011;24967;51.154;13.812;2023-07-09T10:33:25;3.00;;;2.90;;
39266;SDS011;24967;51.154;13.812;2023-07-09T10:36:04;3.22;;;3.03;;
39266;SDS011;24967;51.154;13.812;2023-07-09T10:38:46;9.63;;;3.35;;
39266;SDS011;24967;51.154;13.812;2023-07-09T10:41:18;2.75;;;2.55;;
39266;SDS011;24967;51.154;13.812;2023-07-09T10:43:47;2.85;;;2.72;;
39266;SDS011;24967;51.154;13.812;2023-07-09T10:46:18;6.38;;;3.35;;
39266;SDS011;24967;51.154;13.812;2023-07-09T10:48:50;3.33;;;3.10;;
39266;SDS011;24967;51.154;13.812;2023-07-09T10:51:21;4.23;;;3.00;;
39266;SDS011;24967;51.154;13.812;2023-07-09T10:53:58;3.70;;;3.10;;
39266;SDS011;24967;51.154;13.812;2023-07-09T10:56:29;3.22;;;3.03;;
39266;SDS011;24967;51.154;13.812;2023-07-09T10:59:01;4.00;;;3.70;;
39266;SDS011;24967;51.154;13.812;2023-07-09T11:01:32;4.53;;;3.00;;
39266;SDS011;24967;51.154;13.812;2023-07-09T11:04:03;3.20;;;3.03;;
39266;SDS011;24967;51.154;13.812;2023-07-09T11:06:36;3.38;;;2.63;;
39266;SDS011;24967;51.154;13.812;2023-07-09T11:09:07;3.15;;;2.97;;
39266;SDS011;24967;51.154;13.812;2023-07-09T11:11:42;4.47;;;3.30;;
39266;SDS011;24967;51.154;13.812;2023-07-09T11:14:17;3.50;;;2.95;;
39266;SDS011;24967;51.154;13.812;2023-07-09T11:16:51;3.50;;;3.30;;
39266;SDS011;24967;51.154;13.812;2023-07-09T11:19:21;3.22;;;3.00;;
39266;SDS011;24967;51.154;13.812;2023-07-09T11:22:02;3.63;;;3.30;;
39266;SDS011;24967;51.154;13.812;2023-07-09T11:24:32;3.20;;;3.00;;
39266;SDS011;24967;51.154;13.812;2023-07-09T11:27:00;3.10;;;2.90;;
39266;SDS011;24967;51.154;13.812;2023-07-09T11:29:27;3.95;;;3.22;;
39266;SDS011;24967;51.154;13.812;2023-07-09T11:31:54;3.40;;;3.20;;
39266;SDS011;24967;51.154;13.812;2023-07-09T11:34:26;2.92;;;2.80;;
39266;SDS011;24967;51.154;13.812;2023-07-09T11:36:56;2.90;;;2.70;;
39266;SDS011;24967;51.154;13.812;2023-07-09T11:39:29;44.05;;;5.38;;
39266;SDS011;24967;51.154;13.812;2023-07-09T11:44:57;4.95;;;2.92;;
39266;SDS011;24967;51.154;13.812;2023-07-09T11:47:28;5.90;;;3.20;;
39266;SDS011;24967;51.154;13.812;2023-07-09T11:50:02;11.70;;;3.50;;
39266;SDS011;24967;51.154;13.812;2023-07-09T11:52:32;5.65;;;3.13;;
39266;SDS011;24967;51.154;13.812;2023-07-09T11:55:04;4.35;;;3.00;;
39266;SDS011;24967;51.154;13.812;2023-07-09T11:57:47;3.40;;;2.95;;
39266;SDS011;24967;51.154;13.812;2023-07-09T12:00:14;2.67;;;2.50;;
39266;SDS011;24967;51.154;13.812;2023-07-09T12:02:41;2.95;;;2.80;;
39266;SDS011;24967;51.154;13.812;2023-07-09T12:05:08;3.17;;;2.97;;
39266;SDS011;24967;51.154;13.812;2023-07-09T12:07:35;3.40;;;3.05;;
39266;SDS011;24967;51.154;13.812;2023-07-09T12:10:08;2.95;;;2.85;;
39266;SDS011;24967;51.154;13.812;2023-07-09T12:12:45;3.65;;;2.97;;
39266;SDS011;24967;51.154;13.812;2023-07-09T12:15:14;3.30;;;2.63;;
39266;SDS011;24967;51.154;13.812;2023-07-09T12:17:43;6.43;;;3.00;;
39266;SDS011;24967;51.154;13.812;2023-07-09T12:20:18;4.70;;;3.20;;
39266;SDS011;24967;51.154;13.812;2023-07-09T12:22:45;2.70;;;2.60;;
39266;SDS011;24967;51.154;13.812;2023-07-09T12:25:17;3.40;;;3.15;;
39266;SDS011;24967;51.154;13.812;2023-07-09T12:27:46;3.72;;;2.75;;
39266;SDS011;24967;51.154;13.812;2023-07-09T12:30:12;3.20;;;2.92;;
39266;SDS011;24967;51.154;13.812;2023-07-09T12:32:42;3.05;;;2.72;;
39266;SDS011;24967;51.154;13.812;2023-07-09T12:37:38;5.80;;;2.75;;
39266;SDS011;24967;51.154;13.812;2023-07-09T12:40:07;3.83;;;3.05;;
39266;SDS011;24967;51.154;13.812;2023-07-09T12:42:40;2.85;;;2.75;;
39266;SDS011;24967;51.154;13.812;2023-07-09T12:45:12;3.67;;;3.22;;
39266;SDS011;24967;51.154;13.812;2023-07-09T12:47:41;4.07;;;2.58;;
39266;SDS011;24967;51.154;13.812;2023-07-09T12:50:18;2.83;;;2.63;;
39266;SDS011;24967;51.154;13.812;2023-07-09T12:52:48;4.53;;;3.28;;
39266;SDS011;24967;51.154;13.812;2023-07-09T12:55:19;3.22;;;2.95;;
39266;SDS011;24967;51.154;13.812;2023-07-09T12:57:48;3.45;;;3.08;;
39266;SDS011;24967;51.154;13.812;2023-07-09T13:00:16;3.10;;;2.90;;
39266;SDS011;24967;51.154;13.812;2023-07-09T13:02:44;3.47;;;3.15;;
39266;SDS011;24967;51.154;13.812;2023-07-09T13:05:17;3.10;;;2.95;;
39266;SDS011;24967;51.154;13.812;2023-07-09T13:07:46;3.47;;;3.17;;
39266;SDS011;24967;51.154;13.812;2023-07-09T13:10:15;4.00;;;2.88;;
39266;SDS011;24967;51.154;13.812;2023-07-09T13:12:44;3.45;;;3.25;;
39266;SDS011;24967;51.154;13.812;2023-07-09T13:15:20;3.30;;;3.10;;
39266;SDS011;24967;51.154;13.812;2023-07-09T13:17:49;5.30;;;3.10;;
39266;SDS011;24967;51.154;13.812;2023-07-09T13:20:15;3.35;;;3.05;;
39266;SDS011;24967;51.154;13.812;2023-07-09T13:22:42;4.85;;;3.10;;
39266;SDS011;24967;51.154;13.812;2023-07-09T13:25:10;4.35;;;3.20;;
39266;SDS011;24967;51.154;13.812;2023-07-09T13:27:36;3.00;;;2.90;;
39266;SDS011;24967;51.154;13.812;2023-07-09T13:30:03;3.22;;;3.13;;
39266;SDS011;24967;51.154;13.812;2023-07-09T13:32:31;3.53;;;3.25;;
39266;SDS011;24967;51.154;13.812;2023-07-09T13:34:58;4.85;;;3.47;;
39266;SDS011;24967;51.154;13.812;2023-07-09T13:37:24;3.47;;;3.17;;
39266;SDS011;24967;51.154;13.812;2023-07-09T13:39:51;3.28;;;2.92;;
39266;SDS011;24967;51.154;13.812;2023-07-09T13:42:18;5.55;;;3.40;;
39266;SDS011;24967;51.154;13.812;2023-07-09T13:44:45;3.30;;;2.95;;
39266;SDS011;24967;51.154;13.812;2023-07-09T13:47:13;3.70;;;3.40;;
39266;SDS011;24967;51.154;13.812;2023-07-09T13:49:43;3.40;;;3.10;;
39266;SDS011;24967;51.154;13.812;2023-07-09T13:54:41;3.17;;;2.93;;
39266;SDS011;24967;51.154;13.812;2023-07-09T13:57:10;3.50;;;3.30;;
39266;SDS011;24967;51.154;13.812;2023-07-09T13:59:39;5.00;;;3.30;;
39266;SDS011;24967;51.154;13.812;2023-07-09T14:02:12;3.92;;;2.95;;
39266;SDS011;24967;51.154;13.812;2023-07-09T14:04:47;3.40;;;3.20;;
39266;SDS011;24967;51.154;13.812;2023-07-09T14:07:19;3.88;;;2.95;;
39266;SDS011;24967;51.154;13.812;2023-07-09T14:09:51;3.22;;;3.03;;
39266;SDS011;24967;51.154;13.812;2023-07-09T14:12:17;3.30;;;3.05;;
39266;SDS011;24967;51.154;13.812;2023-07-09T14:14:44;3.75;;;3.17;;
39266;SDS011;24967;51.154;13.812;2023-07-09T14:17:11;3.47;;;2.90;;
39266;SDS011;24967;51.154;13.812;2023-07-09T14:19:38;4.47;;;2.83;;
39266;SDS011;24967;51.154;13.812;2023-07-09T14:22:08;3.88;;;3.45;;
39266;SDS011;24967;51.154;13.812;2023-07-09T14:24:46;3.85;;;3.35;;
39266;SDS011;24967;51.154;13.812;2023-07-09T14:27:13;4.97;;;2.85;;
39266;SDS011;24967;51.154;13.812;2023-07-09T14:29:39;3.20;;;3.00;;
39266;SDS011;24967;51.154;13.812;2023-07-09T14:32:08;3.40;;;3.08;;
39266;SDS011;24967;51.154;13.812;2023-07-09T14:34:59;5.43;;;3.58;;
39266;SDS011;24967;51.154;13.812;2023-07-09T14:37:27;3.35;;;3.15;;
39266;SDS011;24967;51.154;13.812;2023-07-09T14:39:54;3.22;;;2.85;;
39266;SDS011;24967;51.154;13.812;2023-07-09T14:42:20;3.28;;;3.08;;
39266;SDS011;24967;51.154;13.812;2023-07-09T14:44:48;3.53;;;3.33;;
39266;SDS011;24967;51.154;13.812;2023-07-09T14:47:15;3.45;;;3.15;;
39266;SDS011;24967;51.154;13.812;2023-07-09T14:49:44;3.47;;;3.22;;
39266;SDS011;24967;51.154;13.812;2023-07-09T14:52:11;3.70;;;3.40;;
39266;SDS011;24967;51.154;13.812;2023-07-09T14:54:40;4.32;;;3.60;;
39266;SDS011;24967;51.154;13.812;2023-07-09T14:57:08;3.50;;;3.20;;
39266;SDS011;24967;51.154;13.812;2023-07-09T14:59:44;3.60;;;3.30;;